createdAt,value
2018-02-05T00:01:52.104Z,24.20
2018-02-05T00:04:20.289Z,23.12
2018-02-05T00:06:48.524Z,25.58
2018-02-05T00:09:16.766Z,23.90
2018-02-05T00:11:45.804Z,23.95
2018-02-05T00:14:14.017Z,24.12
2018-02-05T00:16:42.225Z,26.17
2018-02-05T00:19:10.467Z,27.85
2018-02-05T00:21:39.426Z,26.50
2018-02-05T00:24:07.630Z,25.90
2018-02-05T00:26:35.840Z,26.50
2018-02-05T00:29:04.061Z,24.67
2018-02-05T00:31:32.256Z,25.27
2018-02-05T00:34:01.272Z,25.33
2018-02-05T00:36:29.469Z,24.80
2018-02-05T00:38:57.701Z,24.02
2018-02-05T00:41:26.908Z,26.23
2018-02-05T00:43:56.801Z,24.73
2018-02-05T00:46:25.788Z,24.55
2018-02-05T00:48:53.992Z,25.65
2018-02-05T00:51:22.196Z,27.33
2018-02-05T00:53:50.484Z,25.60
2018-02-05T00:56:18.693Z,26.30
2018-02-05T00:58:46.877Z,25.77
2018-02-05T01:01:15.900Z,24.05
2018-02-05T01:03:44.124Z,24.95
2018-02-05T01:06:12.345Z,26.77
2018-02-05T01:08:40.810Z,25.10
2018-02-05T01:11:09.028Z,25.98
2018-02-05T01:13:37.247Z,25.80
2018-02-05T01:16:06.329Z,26.33
2018-02-05T01:18:35.336Z,26.02
2018-02-05T01:21:04.410Z,26.17
2018-02-05T01:23:32.620Z,26.25
2018-02-05T01:26:01.692Z,25.48
2018-02-05T01:28:30.729Z,25.27
2018-02-05T01:30:58.941Z,24.45
2018-02-05T01:33:27.125Z,27.58
2018-02-05T01:35:56.912Z,25.98
2018-02-05T01:38:25.148Z,25.30
2018-02-05T01:40:53.361Z,25.27
2018-02-05T01:43:21.784Z,25.05
2018-02-05T01:45:49.974Z,23.33
2018-02-05T01:48:18.185Z,24.55
2018-02-05T01:50:46.424Z,24.50
2018-02-05T01:53:14.636Z,25.37
2018-02-05T01:55:42.853Z,24.30
2018-02-05T01:58:11.129Z,22.55
2018-02-05T02:00:39.340Z,23.40
2018-02-05T02:03:07.581Z,24.75
2018-02-05T02:05:35.795Z,22.30
2018-02-05T02:08:04.004Z,23.85
2018-02-05T02:10:32.996Z,25.62
2018-02-05T02:13:01.953Z,24.17
2018-02-05T02:15:30.142Z,23.05
2018-02-05T02:17:58.348Z,23.62
2018-02-05T02:20:27.529Z,22.13
2018-02-05T02:22:55.759Z,24.25
2018-02-05T02:25:23.985Z,23.25
2018-02-05T02:27:52.947Z,22.77
2018-02-05T02:30:21.260Z,23.00
2018-02-05T02:32:50.268Z,25.00
2018-02-05T02:35:18.481Z,21.67
2018-02-05T02:37:46.724Z,21.90
2018-02-05T02:40:14.936Z,23.12
2018-02-05T02:42:43.195Z,23.62
2018-02-05T02:45:11.381Z,22.67
2018-02-05T02:47:39.591Z,23.15
2018-02-05T02:50:08.589Z,22.13
2018-02-05T02:52:37.763Z,22.85
2018-02-05T02:55:05.953Z,19.77
2018-02-05T02:57:35.432Z,23.40
2018-02-05T03:00:03.673Z,21.83
2018-02-05T03:02:31.869Z,23.23
2018-02-05T03:05:00.072Z,19.60
2018-02-05T03:07:29.192Z,21.25
2018-02-05T03:09:57.404Z,19.50
2018-02-05T03:12:25.620Z,20.50
2018-02-05T03:14:54.627Z,21.20
2018-02-05T03:17:22.835Z,18.33
2018-02-05T03:19:51.046Z,20.30
2018-02-05T03:22:20.044Z,20.37
2018-02-05T03:24:49.001Z,16.90
2018-02-05T03:27:17.237Z,19.73
2018-02-05T03:29:45.737Z,19.87
2018-02-05T03:32:13.968Z,19.05
2018-02-05T03:34:42.950Z,18.10
2018-02-05T03:37:12.527Z,17.33
2018-02-05T03:39:40.755Z,20.52
2018-02-05T03:42:08.949Z,19.55
2018-02-05T03:44:37.184Z,18.77
2018-02-05T03:47:06.216Z,18.67
2018-02-05T03:49:34.408Z,17.90
2018-02-05T03:52:02.617Z,18.17
2018-02-05T03:54:30.919Z,17.65
2018-02-05T03:56:59.155Z,17.83
2018-02-05T03:59:27.363Z,18.25
2018-02-05T04:01:55.600Z,18.25
2018-02-05T04:04:23.812Z,17.17
2018-02-05T04:06:58.356Z,16.33
2018-02-05T04:09:26.989Z,17.35
2018-02-05T04:11:55.196Z,18.23
2018-02-05T04:14:23.412Z,16.48
2018-02-05T04:16:51.645Z,17.30
2018-02-05T04:19:19.844Z,15.60
2018-02-05T04:21:48.053Z,15.93
2018-02-05T04:24:16.295Z,15.80
2018-02-05T04:26:44.485Z,14.93
2018-02-05T04:29:12.704Z,15.38
2018-02-05T04:31:41.656Z,17.75
2018-02-05T04:34:09.853Z,17.87
2018-02-05T04:36:38.124Z,16.15
2018-02-05T04:39:06.336Z,16.15
2018-02-05T04:41:34.601Z,16.15
2018-02-05T04:44:02.853Z,16.83
2018-02-05T04:46:31.037Z,15.38
2018-02-05T04:49:00.045Z,15.80
2018-02-05T04:51:28.293Z,16.52
2018-02-05T04:53:56.481Z,16.17
2018-02-05T04:56:25.591Z,14.27
2018-02-05T04:58:53.812Z,15.57
2018-02-05T05:01:22.031Z,14.80
2018-02-05T05:03:50.513Z,17.73
2018-02-05T05:06:18.715Z,17.10
2018-02-05T05:08:46.897Z,15.02
2018-02-05T05:11:15.182Z,15.60
2018-02-05T05:13:43.555Z,16.62
2018-02-05T05:16:11.773Z,15.40
2018-02-05T05:18:40.754Z,14.55
2018-02-05T05:21:09.024Z,14.18
2018-02-05T05:23:38.068Z,14.65
2018-02-05T05:26:06.293Z,15.30
2018-02-05T05:28:35.274Z,16.48
2018-02-05T05:31:03.460Z,16.20
2018-02-05T05:33:31.690Z,14.10
2018-02-05T05:35:59.896Z,16.60
2018-02-05T05:38:28.128Z,13.65
2018-02-05T05:40:56.344Z,15.15
2018-02-05T05:43:24.537Z,14.57
2018-02-05T05:45:53.529Z,15.23
2018-02-05T05:48:22.509Z,14.25
2018-02-05T05:50:50.708Z,15.15
2018-02-05T05:53:19.735Z,24.10
2018-02-05T05:55:47.948Z,14.25
2018-02-05T05:58:16.176Z,13.77
2018-02-05T06:00:44.388Z,13.52
2018-02-05T06:03:12.643Z,13.65
2018-02-05T06:05:40.882Z,12.75
2018-02-05T06:08:09.071Z,14.50
2018-02-05T06:10:37.295Z,12.95
2018-02-05T06:13:05.554Z,14.27
2018-02-05T06:15:33.867Z,12.73
2018-02-05T06:18:02.816Z,14.18
2018-02-05T06:20:31.088Z,13.07
2018-02-05T06:22:59.273Z,14.18
2018-02-05T06:25:27.501Z,12.70
2018-02-05T06:27:55.700Z,12.50
2018-02-05T06:30:23.932Z,11.35
2018-02-05T06:32:52.121Z,12.20
2018-02-05T06:35:20.330Z,12.63
2018-02-05T06:37:48.737Z,10.77
2018-02-05T06:40:16.941Z,12.23
2018-02-05T06:42:45.128Z,12.63
2018-02-05T06:45:13.335Z,12.15
2018-02-05T06:47:41.560Z,10.57
2018-02-05T06:50:09.768Z,10.43
2018-02-05T06:52:55.904Z,12.00
2018-02-05T06:55:42.628Z,10.55
2018-02-05T06:58:10.880Z,12.27
2018-02-05T07:00:39.089Z,10.73
2018-02-05T07:03:07.336Z,11.73
2018-02-05T07:05:36.316Z,11.00
2018-02-05T07:08:04.501Z,10.60
2018-02-05T07:10:33.509Z,13.05
2018-02-05T07:13:01.720Z,11.48
2018-02-05T07:15:29.965Z,10.85
2018-02-05T07:17:58.173Z,11.07
2018-02-05T07:20:26.360Z,11.98
2018-02-05T07:22:54.568Z,11.07
2018-02-05T07:25:23.536Z,9.73
2018-02-05T07:27:52.140Z,9.90
2018-02-05T07:30:21.101Z,9.40
2018-02-05T07:32:49.312Z,9.30
2018-02-05T07:35:18.324Z,10.35
2018-02-05T07:37:46.560Z,9.57
2018-02-05T07:40:14.750Z,9.18
2018-02-05T07:42:43.766Z,9.73
2018-02-05T07:45:12.572Z,9.00
2018-02-05T07:47:40.785Z,10.50
2018-02-05T07:50:08.992Z,9.45
2018-02-05T07:52:37.176Z,8.70
2018-02-05T07:55:05.401Z,10.30
2018-02-05T07:57:33.706Z,9.55
2018-02-05T08:00:02.684Z,7.85
2018-02-05T08:02:31.704Z,7.20
2018-02-05T08:04:59.913Z,8.55
2018-02-05T08:07:28.500Z,8.23
2018-02-05T08:09:56.732Z,7.50
2018-02-05T08:12:24.969Z,8.30
2018-02-05T08:14:53.188Z,7.78
2018-02-05T08:17:21.397Z,7.20
2018-02-05T08:19:49.647Z,6.57
2018-02-05T08:22:19.169Z,6.80
2018-02-05T08:24:47.396Z,7.50
2018-02-05T08:27:15.717Z,6.82
2018-02-05T08:29:43.905Z,7.43
2018-02-05T08:32:12.121Z,6.40
2018-02-05T08:34:40.347Z,6.35
2018-02-05T08:37:08.537Z,5.68
2018-02-05T08:39:36.777Z,6.78
2018-02-05T08:42:06.152Z,5.53
2018-02-05T08:44:34.408Z,5.28
2018-02-05T08:47:03.393Z,6.75
2018-02-05T08:49:32.016Z,6.05
2018-02-05T08:52:00.202Z,5.93
2018-02-05T08:54:28.412Z,6.43
2018-02-05T08:56:56.636Z,6.03
2018-02-05T08:59:24.884Z,5.30
2018-02-05T09:01:54.776Z,5.55
2018-02-05T09:04:22.982Z,4.90
2018-02-05T09:06:51.212Z,6.43
2018-02-05T09:09:19.460Z,6.32
2018-02-05T09:11:47.653Z,8.65
2018-02-05T09:14:15.860Z,5.37
2018-02-05T09:16:45.023Z,4.62
2018-02-05T09:19:13.204Z,5.03
2018-02-05T09:21:41.394Z,4.70
2018-02-05T09:24:09.621Z,4.32
2018-02-05T09:26:37.849Z,4.80
2018-02-05T09:29:06.833Z,4.75
2018-02-05T09:31:35.843Z,5.40
2018-02-05T09:34:04.034Z,4.80
2018-02-05T09:36:32.236Z,4.25
2018-02-05T09:39:00.546Z,5.10
2018-02-05T09:41:28.754Z,5.75
2018-02-05T09:43:56.960Z,4.20
2018-02-05T09:46:25.338Z,6.82
2018-02-05T09:48:53.788Z,4.90
2018-02-05T09:51:22.021Z,6.62
2018-02-05T09:53:51.151Z,5.57
2018-02-05T09:56:19.394Z,3.95
2018-02-05T09:58:48.575Z,3.45
2018-02-05T10:01:16.802Z,3.22
2018-02-05T10:03:45.117Z,4.00
2018-02-05T10:06:13.426Z,3.12
2018-02-05T10:08:42.483Z,4.60
2018-02-05T10:11:10.955Z,4.80
2018-02-05T10:13:39.234Z,4.25
2018-02-05T10:16:07.482Z,3.50
2018-02-05T10:18:35.786Z,3.45
2018-02-05T10:21:04.087Z,3.35
2018-02-05T10:23:32.350Z,2.83
2018-02-05T10:26:00.575Z,2.25
2018-02-05T10:28:28.862Z,2.90
2018-02-05T10:30:57.231Z,3.37
2018-02-05T10:33:25.491Z,3.60
2018-02-05T10:35:53.754Z,2.95
2018-02-05T10:38:22.754Z,2.50
2018-02-05T10:40:51.744Z,2.25
2018-02-05T10:43:20.814Z,2.28
2018-02-05T10:45:49.042Z,2.30
2018-02-05T10:48:17.266Z,2.80
2018-02-05T10:50:45.523Z,4.40
2018-02-05T10:53:13.750Z,3.17
2018-02-05T10:55:42.023Z,2.47
2018-02-05T10:58:10.247Z,2.37
2018-02-05T11:00:38.480Z,2.28
2018-02-05T11:03:06.754Z,3.05
2018-02-05T11:05:34.998Z,2.10
2018-02-05T11:08:04.012Z,1.90
2018-02-05T11:10:32.263Z,1.75
2018-02-05T11:13:01.255Z,2.15
2018-02-05T11:15:30.319Z,1.98
2018-02-05T11:17:58.580Z,2.12
2018-02-05T11:20:26.866Z,2.08
2018-02-05T11:22:55.491Z,2.00
2018-02-05T11:25:24.478Z,1.80
2018-02-05T11:27:53.524Z,2.45
2018-02-05T11:30:22.189Z,2.00
2018-02-05T11:32:50.414Z,2.35
2018-02-05T11:35:18.667Z,2.58
2018-02-05T11:37:47.303Z,2.70
2018-02-05T11:40:16.299Z,4.07
2018-02-05T11:42:44.622Z,9.05
2018-02-05T11:45:12.878Z,8.15
2018-02-05T11:47:41.137Z,5.45
2018-02-05T11:50:09.394Z,5.50
2018-02-05T11:52:37.666Z,4.82
2018-02-05T11:55:07.388Z,7.80
2018-02-05T11:57:35.887Z,8.68
2018-02-05T12:00:04.127Z,10.43
2018-02-05T12:02:32.363Z,5.00
2018-02-05T12:05:00.858Z,2.20
2018-02-05T12:07:29.084Z,2.70
2018-02-05T12:09:57.315Z,4.07
2018-02-05T12:12:25.586Z,3.20
2018-02-05T12:14:53.875Z,3.90
2018-02-05T12:17:22.098Z,6.10
2018-02-05T12:19:50.355Z,6.30
2018-02-05T12:22:18.607Z,2.73
2018-02-05T12:24:47.731Z,2.57
2018-02-05T12:27:16.328Z,2.83
2018-02-05T12:29:44.653Z,4.13
2018-02-05T12:32:12.864Z,3.27
2018-02-05T12:34:41.720Z,2.30
2018-02-05T12:37:11.312Z,2.37
2018-02-05T12:39:39.863Z,2.47
2018-02-05T12:42:08.085Z,2.40
2018-02-05T12:44:36.318Z,2.83
2018-02-05T12:47:04.724Z,2.40
2018-02-05T12:49:32.917Z,2.50
2018-02-05T12:52:01.869Z,2.47
2018-02-05T12:54:30.165Z,2.50
2018-02-05T12:56:58.378Z,2.63
2018-02-05T12:59:26.648Z,3.13
2018-02-05T13:01:56.615Z,2.00
2018-02-05T13:04:30.321Z,2.30
2018-02-05T13:06:58.883Z,2.80
2018-02-05T13:09:27.108Z,2.60
2018-02-05T13:11:56.061Z,2.40
2018-02-05T13:14:24.481Z,2.43
2018-02-05T13:16:52.674Z,2.60
2018-02-05T13:19:20.888Z,2.20
2018-02-05T13:21:49.120Z,2.60
2018-02-05T13:24:17.474Z,2.42
2018-02-05T13:26:45.669Z,3.37
2018-02-05T13:29:14.272Z,2.63
2018-02-05T13:31:42.541Z,3.13
2018-02-05T13:34:10.788Z,2.80
2018-02-05T13:36:39.115Z,2.60
2018-02-05T13:39:07.351Z,2.30
2018-02-05T13:41:35.632Z,2.90
2018-02-05T13:44:03.825Z,3.03
2018-02-05T13:46:32.386Z,3.17
2018-02-05T13:49:00.615Z,2.70
2018-02-05T13:51:28.832Z,2.70
2018-02-05T13:53:57.068Z,3.73
2018-02-05T13:56:26.036Z,4.80
2018-02-05T13:58:54.294Z,4.70
2018-02-05T14:01:22.533Z,6.80
2018-02-05T14:03:51.504Z,8.13
2018-02-05T14:06:19.713Z,3.97
2018-02-05T14:08:47.935Z,2.83
2018-02-05T14:11:16.189Z,2.70
2018-02-05T14:13:44.433Z,3.20
2018-02-05T14:16:12.638Z,2.77
2018-02-05T14:18:40.861Z,3.13
2018-02-05T14:21:09.845Z,3.70
2018-02-05T14:23:38.825Z,3.10
2018-02-05T14:26:07.037Z,2.70
2018-02-05T14:28:35.248Z,3.23
2018-02-05T14:31:03.482Z,3.07
2018-02-05T14:33:31.668Z,3.23
2018-02-05T14:35:59.880Z,3.10
2018-02-05T14:38:28.121Z,3.00
2018-02-05T14:40:56.632Z,3.43
2018-02-05T14:43:24.867Z,3.03
2018-02-05T14:45:53.158Z,5.63
2018-02-05T14:48:21.399Z,3.00
2018-02-05T14:50:50.414Z,2.70
2018-02-05T14:53:18.606Z,3.07
2018-02-05T14:55:47.116Z,2.63
2018-02-05T14:58:15.345Z,3.37
2018-02-05T15:00:43.770Z,3.50
2018-02-05T15:03:12.068Z,2.50
2018-02-05T15:05:41.028Z,3.00
2018-02-05T15:08:10.016Z,2.90
2018-02-05T15:10:38.248Z,2.80
2018-02-05T15:13:06.489Z,3.23
2018-02-05T15:15:34.763Z,3.60
2018-02-05T15:18:03.724Z,3.45
2018-02-05T15:20:31.937Z,3.45
2018-02-05T15:23:00.949Z,3.40
2018-02-05T15:25:29.137Z,3.60
2018-02-05T15:27:57.329Z,3.25
2018-02-05T15:30:25.560Z,3.10
2018-02-05T15:32:53.749Z,3.00
2018-02-05T15:35:23.137Z,2.70
2018-02-05T15:37:51.358Z,3.20
2018-02-05T15:40:19.585Z,3.72
2018-02-05T15:42:47.790Z,3.12
2018-02-05T17:07:13.637Z,4.25
2018-02-05T17:09:41.893Z,3.72
2018-02-05T17:12:11.010Z,5.00
2018-02-05T17:14:39.201Z,5.12
2018-02-05T17:17:07.488Z,5.40
2018-02-05T17:19:36.491Z,4.75
2018-02-05T17:22:05.468Z,4.55
2018-02-05T17:24:33.655Z,3.83
2018-02-05T17:27:02.653Z,4.55
2018-02-05T17:29:31.669Z,4.50
2018-02-05T17:31:59.867Z,3.85
2018-02-05T17:34:28.073Z,4.07
2018-02-05T17:36:56.359Z,4.45
2018-02-05T17:39:25.449Z,3.92
2018-02-05T17:41:53.660Z,4.35
2018-02-05T17:44:21.884Z,4.65
2018-02-05T17:46:50.169Z,3.75
2018-02-05T17:49:18.388Z,4.40
2018-02-05T17:51:46.616Z,4.60
2018-02-05T17:54:14.812Z,7.85
2018-02-05T17:56:43.820Z,3.87
2018-02-05T17:59:12.021Z,5.05
2018-02-05T18:01:41.001Z,3.83
2018-02-05T18:04:09.263Z,4.43
2018-02-05T18:06:37.532Z,4.57
2018-02-05T18:09:05.732Z,4.43
2018-02-05T18:11:33.936Z,4.30
2018-02-05T18:14:02.130Z,4.70
2018-02-05T18:16:31.150Z,4.28
2018-02-05T18:18:59.332Z,4.10
2018-02-05T18:21:27.530Z,3.90
2018-02-05T18:23:55.857Z,3.58
2018-02-05T18:26:24.833Z,4.30
2018-02-05T18:28:53.060Z,4.70
2018-02-05T18:31:21.316Z,4.70
2018-02-05T18:33:49.528Z,4.62
2018-02-05T18:36:17.853Z,5.12
2018-02-05T18:38:46.103Z,6.65
2018-02-05T18:41:15.125Z,8.00
2018-02-05T18:43:43.331Z,4.95
2018-02-05T18:46:11.592Z,4.85
2018-02-05T18:48:39.808Z,5.62
2018-02-05T18:51:08.508Z,4.87
2018-02-05T18:53:37.507Z,4.97
2018-02-05T18:56:06.498Z,5.20
2018-02-05T18:58:35.721Z,5.78
2018-02-05T19:01:03.945Z,5.78
2018-02-05T19:03:32.168Z,5.60
2018-02-05T19:06:00.393Z,5.40
2018-02-05T19:08:28.614Z,6.30
2018-02-05T19:10:56.835Z,5.22
2018-02-05T19:13:25.053Z,5.22
2018-02-05T19:15:53.269Z,6.05
2018-02-05T19:18:23.041Z,5.60
2018-02-05T19:21:01.940Z,5.35
2018-02-05T19:23:31.997Z,5.12
2018-02-05T19:26:01.192Z,8.20
2018-02-05T19:28:31.757Z,14.05
2018-02-05T19:31:00.829Z,14.00
2018-02-05T19:33:29.050Z,9.63
2018-02-05T19:35:58.201Z,9.25
2018-02-05T19:38:27.367Z,9.60
2018-02-05T19:40:56.183Z,10.82
2018-02-05T19:43:24.436Z,10.05
2018-02-05T19:45:52.928Z,9.40
2018-02-05T19:48:21.210Z,10.13
2018-02-05T19:50:50.583Z,10.50
2018-02-05T19:53:18.952Z,9.45
2018-02-05T19:55:48.038Z,9.40
2018-02-05T19:58:17.013Z,9.57
2018-02-05T20:00:45.605Z,8.68
2018-02-05T20:03:13.853Z,8.57
2018-02-05T20:05:42.204Z,7.18
2018-02-05T20:08:10.439Z,7.55
2018-02-05T20:10:39.845Z,7.32
2018-02-05T20:13:08.067Z,6.37
2018-02-05T20:15:36.349Z,7.82
2018-02-05T20:18:04.557Z,8.70
2018-02-05T20:20:34.718Z,7.82
2018-02-05T20:23:02.985Z,6.43
2018-02-05T20:25:31.195Z,7.22
2018-02-05T20:27:59.927Z,7.43
2018-02-05T20:30:28.944Z,6.25
2018-02-05T20:32:57.180Z,7.45
2018-02-05T20:35:26.159Z,7.03
2018-02-05T20:37:54.410Z,7.28
2018-02-05T20:40:22.636Z,7.12
2018-02-05T20:42:51.605Z,6.82
2018-02-05T20:45:20.054Z,7.47
2018-02-05T20:47:48.274Z,7.03
2018-02-05T20:50:17.312Z,7.20
2018-02-05T20:52:45.532Z,7.87
2018-02-05T20:55:14.493Z,8.35
2018-02-05T20:57:42.880Z,7.80
2018-02-05T21:00:11.097Z,7.43
2018-02-05T21:02:39.284Z,7.05
2018-02-05T21:05:07.497Z,7.82
2018-02-05T21:53:28.256Z,8.00
2018-02-05T21:55:56.480Z,9.82
2018-02-05T21:58:24.716Z,8.73
2018-02-05T22:00:52.932Z,8.98
2018-02-05T22:03:21.933Z,7.55
2018-02-05T22:05:50.892Z,7.78
2018-02-05T22:08:19.149Z,7.30
2018-02-05T22:10:47.353Z,7.87
2018-02-05T22:13:15.583Z,7.80
2018-02-05T22:15:43.802Z,8.60
2018-02-05T22:18:12.790Z,8.63
2018-02-05T22:20:41.005Z,7.78
2018-02-05T22:23:09.216Z,9.05
2018-02-05T22:25:37.433Z,9.05
2018-02-05T22:28:06.440Z,8.55
2018-02-05T22:30:34.682Z,7.68
2018-02-05T22:33:02.916Z,9.88
2018-02-05T22:35:31.124Z,7.82
2018-02-05T22:37:59.316Z,7.85
2018-02-05T22:40:28.313Z,7.87
2018-02-05T22:42:57.268Z,8.45
2018-02-05T22:45:25.469Z,8.95
2018-02-05T22:47:53.681Z,7.45
2018-02-05T22:50:21.880Z,9.27
2018-02-05T22:52:50.121Z,10.45
2018-02-05T22:55:19.321Z,10.65
2018-02-05T22:57:47.532Z,11.35
2018-02-05T23:00:17.709Z,10.77
2018-02-05T23:02:45.900Z,10.82
2018-02-05T23:05:14.132Z,27.83
2018-02-05T23:07:43.124Z,29.17
2018-02-05T23:10:11.320Z,48.60
2018-02-05T23:12:39.568Z,28.25
2018-02-05T23:15:07.762Z,26.90
2018-02-05T23:17:36.744Z,19.48
2018-02-05T23:20:05.764Z,23.08
2018-02-05T23:22:33.957Z,18.30
2018-02-05T23:25:02.200Z,17.40
2018-02-05T23:27:30.396Z,12.10
2018-02-05T23:29:58.590Z,13.32
2018-02-05T23:32:27.189Z,13.40
2018-02-05T23:34:55.407Z,9.45
2018-02-05T23:37:23.646Z,10.25
2018-02-05T23:39:51.841Z,9.27
2018-02-05T23:42:20.844Z,11.63
2018-02-05T23:44:49.111Z,11.65
2018-02-05T23:47:18.141Z,11.75
2018-02-05T23:49:46.390Z,11.48
2018-02-05T23:52:14.583Z,10.68
2018-02-05T23:54:42.838Z,13.32
2018-02-05T23:57:11.029Z,10.65
2018-02-05T23:59:39.222Z,10.82
